Time,TemperatureF,DewpointF,PressureIn,WindDirection,WindDirectionDegrees,WindSpeedMPH,WindSpeedGustMPH,Humidity,HourlyPrecipIn,Conditions,Clouds,dailyrainin,SoftwareType,DateUTC
2013-07-01 00:01:00,64.2,55.0,30.16,NNE,16,0.0,0.0,72,0.00,,,0.00,vanprod-2.3,2013-07-01 05:01:00,
2013-07-01 00:06:00,64.0,54.8,30.17,NNE,16,0.0,0.0,72,0.00,,,0.00,vanprod-2.3,2013-07-01 05:06:00,
2013-07-01 00:11:00,63.8,53.8,30.17,NNE,16,0.0,0.0,70,0.00,,,0.00,vanprod-2.3,2013-07-01 05:11:00,
2013-07-01 00:16:00,63.7,54.5,30.17,NNE,16,0.0,0.0,72,0.00,,,0.00,vanprod-2.3,2013-07-01 05:16:00,
2013-07-01 00:21:00,63.5,53.9,30.17,NNE,16,0.0,0.0,71,0.00,,,0.00,vanprod-2.3,2013-07-01 05:21:00,
2013-07-01 00:26:00,63.4,54.2,30.17,NNE,16,0.0,0.0,72,0.00,,,0.00,vanprod-2.3,2013-07-01 05:26:00,
2013-07-01 00:31:00,63.4,55.0,30.17,NNE,16,0.0,0.0,74,0.00,,,0.00,vanprod-2.3,2013-07-01 05:31:00,
2013-07-01 00:36:00,63.2,54.8,30.17,NNE,16,0.0,0.0,74,0.00,,,0.00,vanprod-2.3,2013-07-01 05:36:00,
2013-07-01 00:41:00,62.9,54.1,30.17,NNE,16,0.0,0.0,73,0.00,,,0.00,vanprod-2.3,2013-07-01 05:41:00,
2013-07-01 00:46:00,62.9,53.7,30.17,NNE,16,0.0,0.0,72,0.00,,,0.00,vanprod-2.3,2013-07-01 05:46:00,
2013-07-01 00:51:00,62.7,54.3,30.17,NNE,16,0.0,0.0,74,0.00,,,0.00,vanprod-2.3,2013-07-01 05:51:00,
2013-07-01 00:56:00,62.7,54.3,30.17,NNE,16,0.0,0.0,74,0.00,,,0.00,vanprod-2.3,2013-07-01 05:56:00,
2013-07-01 01:01:00,62.6,53.8,30.17,NNE,16,0.0,0.0,73,0.00,,,0.00,vanprod-2.3,2013-07-01 06:01:00,
2013-07-01 01:06:00,62.6,53.5,30.17,NNE,16,0.0,0.0,72,0.00,,,0.00,vanprod-2.3,2013-07-01 06:06:00,
2013-07-01 01:11:00,62.4,53.6,30.17,NNE,16,0.0,0.0,73,0.00,,,0.00,vanprod-2.3,2013-07-01 06:11:00,
2013-07-01 01:16:00,62.4,54.0,30.17,NNE,16,0.0,0.0,74,0.00,,,0.00,vanprod-2.3,2013-07-01 06:16:00,
2013-07-01 01:21:00,62.2,54.2,30.17,NNE,16,0.0,0.0,75,0.00,,,0.00,vanprod-2.3,2013-07-01 06:21:00,
2013-07-01 01:26:00,62.2,54.6,30.17,NNE,16,0.0,0.0,76,0.00,,,0.00,vanprod-2.3,2013-07-01 06:26:00,
2013-07-01 01:31:00,62.1,54.1,30.17,NNE,16,0.0,0.0,75,0.00,,,0.00,vanprod-2.3,2013-07-01 06:31:00,
2013-07-01 01:36:00,62.1,54.5,30.17,NNE,16,0.0,0.0,76,0.00,,,0.00,vanprod-2.3,2013-07-01 06:36:00,
2013-07-01 01:41:00,61.9,53.5,30.17,NNE,16,0.0,0.0,74,0.00,,,0.00,vanprod-2.3,2013-07-01 06:41:00,
2013-07-01 01:46:00,61.8,53.8,30.17,NNE,16,0.0,0.0,75,0.00,,,0.00,vanprod-2.3,2013-07-01 06:46:00,
2013-07-01 01:51:00,61.6,54.3,30.17,NNE,16,0.0,0.0,77,0.00,,,0.00,vanprod-2.3,2013-07-01 06:51:00,
2013-07-01 01:56:00,61.6,54.0,30.18,NNE,16,0.0,0.0,76,0.00,,,0.00,vanprod-2.3,2013-07-01 06:56:00,
2013-07-01 02:01:00,61.6,53.6,30.18,NNE,16,0.0,0.0,75,0.00,,,0.00,vanprod-2.3,2013-07-01 07:01:00,
2013-07-01 02:06:00,61.5,54.2,30.18,NNE,16,0.0,0.0,77,0.00,,,0.00,vanprod-2.3,2013-07-01 07:06:00,
2013-07-01 02:11:00,61.5,54.2,30.18,NNE,16,0.0,0.0,77,0.00,,,0.00,vanprod-2.3,2013-07-01 07:11:00,
2013-07-01 02:16:00,61.3,53.7,30.18,NNE,16,0.0,0.0,76,0.00,,,0.00,vanprod-2.3,2013-07-01 07:16:00,
2013-07-01 02:21:00,61.1,53.8,30.18,NNE,16,0.0,0.0,77,0.00,,,0.00,vanprod-2.3,2013-07-01 07:21:00,
2013-07-01 02:26:00,61.1,54.2,30.18,NNE,16,0.0,0.0,78,0.00,,,0.00,vanprod-2.3,2013-07-01 07:26:00,
2013-07-01 02:31:00,61.0,54.1,30.18,NNE,16,0.0,0.0,78,0.00,,,0.00,vanprod-2.3,2013-07-01 07:31:00,
2013-07-01 02:36:00,60.8,54.3,30.18,NNE,16,0.0,0.0,79,0.00,,,0.00,vanprod-2.3,2013-07-01 07:36:00,
2013-07-01 02:41:00,60.7,54.2,30.18,NNE,16,0.0,0.0,79,0.00,,,0.00,vanprod-2.3,2013-07-01 07:41:00,
2013-07-01 02:46:00,60.7,54.5,30.18,NNE,16,0.0,0.0,80,0.00,,,0.00,vanprod-2.3,2013-07-01 07:46:00,
2013-07-01 02:51:00,60.5,54.3,30.18,NNE,16,0.0,0.0,80,0.00,,,0.00,vanprod-2.3,2013-07-01 07:51:00,
2013-07-01 02:56:00,60.4,54.2,30.18,NNE,16,0.0,0.0,80,0.00,,,0.00,vanprod-2.3,2013-07-01 07:56:00,
2013-07-01 03:01:00,60.4,54.6,30.18,NNE,16,0.0,0.0,81,0.00,,,0.00,vanprod-2.3,2013-07-01 08:01:00,
2013-07-01 03:06:00,60.2,54.0,30.18,NNE,16,0.0,0.0,80,0.00,,,0.00,vanprod-2.3,2013-07-01 08:06:00,
2013-07-01 03:11:00,60.2,54.4,30.18,NNE,16,0.0,0.0,81,0.00,,,0.00,vanprod-2.3,2013-07-01 08:11:00,
2013-07-01 03:16:00,60.0,54.2,30.18,NNE,16,0.0,0.0,81,0.00,,,0.00,vanprod-2.3,2013-07-01 08:16:00,
2013-07-01 03:21:00,60.0,54.5,30.18,NNE,16,0.0,0.0,82,0.00,,,0.00,vanprod-2.3,2013-07-01 08:21:00,
2013-07-01 03:26:00,59.9,54.4,30.18,NNE,16,0.0,0.0,82,0.00,,,0.00,vanprod-2.3,2013-07-01 08:26:00,
2013-07-01 03:31:00,59.7,54.2,30.18,NNE,16,0.0,0.0,82,0.00,,,0.00,vanprod-2.3,2013-07-01 08:31:00,
2013-07-01 03:36:00,59.7,54.5,30.18,NNE,16,0.0,0.0,83,0.00,,,0.00,vanprod-2.3,2013-07-01 08:36:00,
2013-07-01 03:41:00,59.6,54.4,30.18,NNE,16,0.0,0.0,83,0.00,,,0.00,vanprod-2.3,2013-07-01 08:41:00,
2013-07-01 03:46:00,59.6,54.4,30.18,NNE,16,0.0,0.0,83,0.00,,,0.00,vanprod-2.3,2013-07-01 08:46:00,
2013-07-01 03:51:00,59.4,54.6,30.18,NNE,16,0.0,0.0,84,0.00,,,0.00,vanprod-2.3,2013-07-01 08:51:00,
2013-07-01 03:56:00,59.4,54.6,30.18,NNE,16,0.0,0.0,84,0.00,,,0.00,vanprod-2.3,2013-07-01 08:56:00,
2013-07-01 04:01:00,59.4,54.6,30.18,NNE,16,0.0,0.0,84,0.00,,,0.00,vanprod-2.3,2013-07-01 09:01:00,
2013-07-01 04:06:00,59.6,55.4,30.18,NNE,16,0.0,0.0,86,0.00,,,0.00,vanprod-2.3,2013-07-01 09:06:00,
2013-07-01 04:11:00,59.6,56.4,30.18,NNE,16,0.0,0.0,89,0.00,,,0.00,vanprod-2.3,2013-07-01 09:11:00,
2013-07-01 04:16:00,59.7,56.8,30.18,NNE,16,0.0,0.0,90,0.00,,,0.00,vanprod-2.3,2013-07-01 09:16:00,
2013-07-01 04:21:00,59.7,57.1,30.18,NNE,16,0.0,0.0,91,0.00,,,0.00,vanprod-2.3,2013-07-01 09:21:00,
2013-07-01 04:26:00,59.7,57.1,30.18,NNE,16,0.0,0.0,91,0.00,,,0.00,vanprod-2.3,2013-07-01 09:26:00,
2013-07-01 04:31:00,59.6,57.0,30.18,NNE,16,0.0,1.0,91,0.00,,,0.00,vanprod-2.3,2013-07-01 09:31:00,
2013-07-01 04:36:00,59.6,57.0,30.18,NNE,16,0.0,0.0,91,0.00,,,0.00,vanprod-2.3,2013-07-01 09:36:00,
2013-07-01 04:41:00,59.6,57.0,30.18,NNE,16,0.0,0.0,91,0.00,,,0.00,vanprod-2.3,2013-07-01 09:41:00,
2013-07-01 04:46:00,59.6,57.3,30.19,NNE,16,0.0,0.0,92,0.00,,,0.00,vanprod-2.3,2013-07-01 09:46:00,
2013-07-01 04:51:00,59.4,57.1,30.19,NNE,16,0.0,0.0,92,0.00,,,0.00,vanprod-2.3,2013-07-01 09:51:00,
2013-07-01 04:56:00,59.4,57.1,30.19,NNE,16,0.0,0.0,92,0.00,,,0.00,vanprod-2.3,2013-07-01 09:56:00,
2013-07-01 05:01:00,59.4,57.1,30.19,NNE,16,0.0,0.0,92,0.00,,,0.00,vanprod-2.3,2013-07-01 10:01:00,
2013-07-01 05:06:00,59.3,57.0,30.19,NNE,16,0.0,0.0,92,0.00,,,0.00,vanprod-2.3,2013-07-01 10:06:00,
2013-07-01 05:11:00,59.1,56.8,30.19,NNE,16,0.0,0.0,92,0.00,,,0.00,vanprod-2.3,2013-07-01 10:11:00,
2013-07-01 05:16:00,59.1,56.8,30.20,NNE,16,0.0,0.0,92,0.00,,,0.00,vanprod-2.3,2013-07-01 10:16:00,
2013-07-01 05:21:00,59.1,56.8,30.20,NNE,16,0.0,0.0,92,0.00,,,0.00,vanprod-2.3,2013-07-01 10:21:00,
2013-07-01 05:26:00,59.0,56.7,30.20,NNE,16,0.0,0.0,92,0.00,,,0.00,vanprod-2.3,2013-07-01 10:26:00,
2013-07-01 05:31:00,59.0,56.7,30.20,NNE,16,0.0,0.0,92,0.00,,,0.00,vanprod-2.3,2013-07-01 10:31:00,
2013-07-01 05:36:00,58.8,56.5,30.20,NNE,16,0.0,0.0,92,0.00,,,0.00,vanprod-2.3,2013-07-01 10:36:00,
2013-07-01 05:41:00,58.8,56.5,30.20,NNE,16,0.0,0.0,92,0.00,,,0.00,vanprod-2.3,2013-07-01 10:41:00,
2013-07-01 05:46:00,58.8,56.5,30.20,NNE,16,0.0,0.0,92,0.00,,,0.00,vanprod-2.3,2013-07-01 10:46:00,
2013-07-01 05:51:00,58.8,56.5,30.20,NNE,16,0.0,0.0,92,0.00,,,0.00,vanprod-2.3,2013-07-01 10:51:00,
2013-07-01 05:56:00,58.7,56.7,30.20,NNE,16,0.0,0.0,93,0.00,,,0.00,vanprod-2.3,2013-07-01 10:56:00,
2013-07-01 06:01:00,58.7,56.4,30.20,NNE,16,0.0,0.0,92,0.00,,,0.00,vanprod-2.3,2013-07-01 11:01:00,
2013-07-01 06:06:00,58.7,56.7,30.20,NNE,16,0.0,0.0,93,0.00,,,0.00,vanprod-2.3,2013-07-01 11:06:00,
2013-07-01 06:11:00,58.7,56.7,30.20,NNE,16,0.0,0.0,93,0.00,,,0.00,vanprod-2.3,2013-07-01 11:11:00,
2013-07-01 06:16:00,58.7,56.7,30.20,NNE,16,0.0,0.0,93,0.00,,,0.00,vanprod-2.3,2013-07-01 11:16:00,
2013-07-01 06:21:00,58.7,56.7,30.20,North,11,0.0,0.0,93,0.00,,,0.00,vanprod-2.3,2013-07-01 11:21:00,
2013-07-01 06:26:00,58.7,56.7,30.21,North,11,0.0,0.0,93,0.00,,,0.00,vanprod-2.3,2013-07-01 11:26:00,
2013-07-01 06:31:00,58.7,56.7,30.21,North,11,0.0,0.0,93,0.00,,,0.00,vanprod-2.3,2013-07-01 11:31:00,
2013-07-01 06:36:00,58.8,56.8,30.21,North,11,0.0,0.0,93,0.00,,,0.00,vanprod-2.3,2013-07-01 11:36:00,
2013-07-01 06:41:00,59.0,57.3,30.21,North,11,0.0,0.0,94,0.00,,,0.00,vanprod-2.3,2013-07-01 11:41:00,
2013-07-01 06:46:00,59.1,57.4,30.21,North,11,0.0,0.0,94,0.00,,,0.00,vanprod-2.3,2013-07-01 11:46:00,
2013-07-01 06:51:00,59.4,57.7,30.21,North,11,0.0,0.0,94,0.00,,,0.00,vanprod-2.3,2013-07-01 11:51:00,
2013-07-01 06:56:00,59.7,57.7,30.21,North,11,0.0,0.0,93,0.00,,,0.00,vanprod-2.3,2013-07-01 11:56:00,
2013-07-01 07:01:00,60.0,57.7,30.21,North,11,0.0,0.0,92,0.00,,,0.00,vanprod-2.3,2013-07-01 12:01:00,
2013-07-01 07:06:00,60.4,57.8,30.21,North,11,0.0,0.0,91,0.00,,,0.00,vanprod-2.3,2013-07-01 12:06:00,
2013-07-01 07:11:00,60.7,57.8,30.21,North,11,0.0,0.0,90,0.00,,,0.00,vanprod-2.3,2013-07-01 12:11:00,
2013-07-01 07:16:00,61.1,57.8,30.21,North,11,0.0,0.0,89,0.00,,,0.00,vanprod-2.3,2013-07-01 12:16:00,
2013-07-01 07:21:00,61.5,57.6,30.21,North,11,0.0,0.0,87,0.00,,,0.00,vanprod-2.3,2013-07-01 12:21:00,
2013-07-01 07:26:00,61.8,57.9,30.21,North,11,1.0,0.0,87,0.00,,,0.00,vanprod-2.3,2013-07-01 12:26:00,
2013-07-01 07:31:00,62.1,57.9,30.21,North,11,0.0,0.0,86,0.00,,,0.00,vanprod-2.3,2013-07-01 12:31:00,
2013-07-01 07:36:00,62.4,57.5,30.21,North,11,0.0,0.0,84,0.00,,,0.00,vanprod-2.3,2013-07-01 12:36:00,
2013-07-01 07:41:00,62.7,57.5,30.21,North,11,0.0,0.0,83,0.00,,,0.00,vanprod-2.3,2013-07-01 12:41:00,
2013-07-01 07:46:00,63.0,57.8,30.21,North,11,0.0,0.0,83,0.00,,,0.00,vanprod-2.3,2013-07-01 12:46:00,
2013-07-01 07:51:00,63.5,57.6,30.21,North,11,0.0,0.0,81,0.00,,,0.00,vanprod-2.3,2013-07-01 12:51:00,
2013-07-01 07:56:00,64.0,58.1,30.22,North,11,0.0,0.0,81,0.00,,,0.00,vanprod-2.3,2013-07-01 12:56:00,
2013-07-01 08:01:00,64.5,58.2,30.22,North,11,0.0,0.0,80,0.00,,,0.00,vanprod-2.3,2013-07-01 13:01:00,
2013-07-01 08:06:00,64.8,58.5,30.22,North,11,0.0,0.0,80,0.00,,,0.00,vanprod-2.3,2013-07-01 13:06:00,
2013-07-01 08:11:00,65.1,58.1,30.22,North,11,0.0,0.0,78,0.00,,,0.00,vanprod-2.3,2013-07-01 13:11:00,
2013-07-01 08:16:00,65.5,58.5,30.22,North,11,0.0,0.0,78,0.00,,,0.00,vanprod-2.3,2013-07-01 13:16:00,
2013-07-01 08:21:00,65.8,58.0,30.22,North,11,0.0,0.0,76,0.00,,,0.00,vanprod-2.3,2013-07-01 13:21:00,
2013-07-01 08:26:00,66.3,58.5,30.22,North,11,0.0,0.0,76,0.00,,,0.00,vanprod-2.3,2013-07-01 13:26:00,
2013-07-01 08:31:00,66.8,58.6,30.22,North,11,0.0,0.0,75,0.00,,,0.00,vanprod-2.3,2013-07-01 13:31:00,
2013-07-01 08:36:00,67.3,58.7,30.22,North,11,1.0,1.0,74,0.00,,,0.00,vanprod-2.3,2013-07-01 13:36:00,
2013-07-01 08:41:00,67.8,57.7,30.22,North,11,0.0,0.0,70,0.00,,,0.00,vanprod-2.3,2013-07-01 13:41:00,
2013-07-01 08:46:00,68.3,58.1,30.22,North,11,0.0,0.0,70,0.00,,,0.00,vanprod-2.3,2013-07-01 13:46:00,
2013-07-01 08:51:00,68.6,58.4,30.23,North,11,0.0,0.0,70,0.00,,,0.00,vanprod-2.3,2013-07-01 13:51:00,
2013-07-01 08:56:00,68.9,58.7,30.23,North,11,0.0,0.0,70,0.00,,,0.00,vanprod-2.3,2013-07-01 13:56:00,
2013-07-01 09:01:00,69.1,59.3,30.23,North,11,0.0,0.0,71,0.00,,,0.00,vanprod-2.3,2013-07-01 14:01:00,
2013-07-01 09:06:00,69.4,59.2,30.23,North,11,0.0,0.0,70,0.00,,,0.00,vanprod-2.3,2013-07-01 14:06:00,
2013-07-01 09:11:00,69.8,59.6,30.23,North,11,0.0,0.0,70,0.00,,,0.00,vanprod-2.3,2013-07-01 14:11:00,
2013-07-01 09:16:00,70.3,59.3,30.23,North,11,2.0,2.0,68,0.00,,,0.00,vanprod-2.3,2013-07-01 14:16:00,
2013-07-01 09:21:00,70.6,59.5,30.23,North,11,0.0,0.0,68,0.00,,,0.00,vanprod-2.3,2013-07-01 14:21:00,
2013-07-01 09:26:00,71.1,60.0,30.23,North,11,1.0,2.0,68,0.00,,,0.00,vanprod-2.3,2013-07-01 14:26:00,
2013-07-01 09:31:00,71.5,59.6,30.23,North,11,0.0,0.0,66,0.00,,,0.00,vanprod-2.3,2013-07-01 14:31:00,
2013-07-01 09:36:00,71.8,59.4,30.23,North,11,0.0,2.0,65,0.00,,,0.00,vanprod-2.3,2013-07-01 14:36:00,
2013-07-01 09:41:00,72.2,59.4,30.23,North,11,0.0,0.0,64,0.00,,,0.00,vanprod-2.3,2013-07-01 14:41:00,
2013-07-01 09:46:00,72.3,59.9,30.23,North,11,0.0,0.0,65,0.00,,,0.00,vanprod-2.3,2013-07-01 14:46:00,
2013-07-01 09:51:00,72.7,60.3,30.23,North,11,0.0,0.0,65,0.00,,,0.00,vanprod-2.3,2013-07-01 14:51:00,
2013-07-01 09:56:00,72.8,60.8,30.22,North,11,0.0,0.0,66,0.00,,,0.00,vanprod-2.3,2013-07-01 14:56:00,
2013-07-01 10:01:00,73.4,59.6,30.22,North,11,0.0,1.0,62,0.00,,,0.00,vanprod-2.3,2013-07-01 15:01:00,
2013-07-01 10:06:00,73.9,60.5,30.22,North,11,0.0,0.0,63,0.00,,,0.00,vanprod-2.3,2013-07-01 15:06:00,
2013-07-01 10:11:00,74.6,60.3,30.22,North,11,0.0,0.0,61,0.00,,,0.00,vanprod-2.3,2013-07-01 15:11:00,
2013-07-01 10:16:00,75.3,59.0,30.22,North,11,1.0,0.0,57,0.00,,,0.00,vanprod-2.3,2013-07-01 15:16:00,
2013-07-01 10:21:00,76.0,60.7,30.22,North,11,0.0,0.0,59,0.00,,,0.00,vanprod-2.3,2013-07-01 15:21:00,
2013-07-01 10:26:00,76.5,58.6,30.22,North,11,1.0,0.0,54,0.00,,,0.00,vanprod-2.3,2013-07-01 15:26:00,
2013-07-01 10:31:00,77.2,59.8,30.21,North,11,1.0,0.0,55,0.00,,,0.00,vanprod-2.3,2013-07-01 15:31:00,
2013-07-01 10:36:00,77.6,58.6,30.21,North,11,0.0,0.0,52,0.00,,,0.00,vanprod-2.3,2013-07-01 15:36:00,
2013-07-01 10:41:00,78.0,60.5,30.21,North,11,0.0,0.0,55,0.00,,,0.00,vanprod-2.3,2013-07-01 15:41:00,
2013-07-01 10:46:00,78.3,58.7,30.21,North,11,2.0,3.0,51,0.00,,,0.00,vanprod-2.3,2013-07-01 15:46:00,
2013-07-01 10:51:00,78.3,58.2,30.21,North,11,1.0,3.0,50,0.00,,,0.00,vanprod-2.3,2013-07-01 15:51:00,
2013-07-01 10:56:00,78.3,57.6,30.21,North,11,2.0,2.0,49,0.00,,,0.00,vanprod-2.3,2013-07-01 15:56:00,
2013-07-01 11:01:00,78.7,57.4,30.22,North,11,0.0,1.0,48,0.00,,,0.00,vanprod-2.3,2013-07-01 16:01:00,
2013-07-01 11:06:00,79.3,56.7,30.22,North,11,0.0,0.0,46,0.00,,,0.00,vanprod-2.3,2013-07-01 16:06:00,
2013-07-01 11:11:00,79.6,57.0,30.21,North,11,1.0,1.0,46,0.00,,,0.00,vanprod-2.3,2013-07-01 16:11:00,
2013-07-01 11:16:00,79.8,55.3,30.22,North,11,2.0,2.0,43,0.00,,,0.00,vanprod-2.3,2013-07-01 16:16:00,
2013-07-01 11:21:00,80.2,53.0,30.21,North,11,0.0,0.0,39,0.00,,,0.00,vanprod-2.3,2013-07-01 16:21:00,
2013-07-01 11:26:00,81.1,55.9,30.22,North,11,1.0,2.0,42,0.00,,,0.00,vanprod-2.3,2013-07-01 16:26:00,
2013-07-01 11:31:00,81.3,54.7,30.21,North,11,1.0,1.0,40,0.00,,,0.00,vanprod-2.3,2013-07-01 16:31:00,
2013-07-01 11:36:00,81.1,54.5,30.21,North,11,2.0,2.0,40,0.00,,,0.00,vanprod-2.3,2013-07-01 16:36:00,
2013-07-01 11:41:00,81.1,55.9,30.21,North,11,2.0,0.0,42,0.00,,,0.00,vanprod-2.3,2013-07-01 16:41:00,
2013-07-01 11:46:00,81.7,55.1,30.21,North,11,0.0,1.0,40,0.00,,,0.00,vanprod-2.3,2013-07-01 16:46:00,
2013-07-01 11:51:00,82.3,55.6,30.21,North,11,1.0,1.0,40,0.00,,,0.00,vanprod-2.3,2013-07-01 16:51:00,
2013-07-01 11:56:00,82.5,52.9,30.21,North,11,2.0,5.0,36,0.00,,,0.00,vanprod-2.3,2013-07-01 16:56:00,
2013-07-01 12:01:00,82.1,51.0,30.21,North,11,2.0,3.0,34,0.00,,,0.00,vanprod-2.3,2013-07-01 17:01:00,
2013-07-01 12:06:00,82.1,53.3,30.21,North,11,0.0,0.0,37,0.00,,,0.00,vanprod-2.3,2013-07-01 17:06:00,
2013-07-01 12:11:00,82.5,55.1,30.21,North,11,0.0,2.0,39,0.00,,,0.00,vanprod-2.3,2013-07-01 17:11:00,
2013-07-01 12:16:00,82.7,49.9,30.21,NNE,17,1.0,0.0,32,0.00,,,0.00,vanprod-2.3,2013-07-01 17:16:00,
2013-07-01 12:21:00,82.1,50.2,30.21,NNE,17,2.0,2.0,33,0.00,,,0.00,vanprod-2.3,2013-07-01 17:21:00,
2013-07-01 12:26:00,81.7,52.9,30.21,NNE,17,0.0,0.0,37,0.00,,,0.00,vanprod-2.3,2013-07-01 17:26:00,
2013-07-01 12:31:00,81.3,52.6,30.21,NNE,17,0.0,0.0,37,0.00,,,0.00,vanprod-2.3,2013-07-01 17:31:00,
2013-07-01 12:36:00,81.7,51.4,30.21,NNE,17,0.0,0.0,35,0.00,,,0.00,vanprod-2.3,2013-07-01 17:36:00,
2013-07-01 12:41:00,82.1,51.0,30.21,NNE,17,1.0,2.0,34,0.00,,,0.00,vanprod-2.3,2013-07-01 17:41:00,
2013-07-01 12:46:00,82.3,52.7,30.21,NNE,17,1.0,1.0,36,0.00,,,0.00,vanprod-2.3,2013-07-01 17:46:00,
2013-07-01 12:51:00,82.3,49.5,30.21,NNE,17,1.0,3.0,32,0.00,,,0.00,vanprod-2.3,2013-07-01 17:51:00,
2013-07-01 12:56:00,82.7,51.5,30.21,NNE,17,1.0,3.0,34,0.00,,,0.00,vanprod-2.3,2013-07-01 17:56:00,
2013-07-01 13:01:00,82.3,51.9,30.21,NNE,17,1.0,0.0,35,0.00,,,0.00,vanprod-2.3,2013-07-01 18:01:00,
2013-07-01 13:06:00,82.5,51.3,30.21,NNE,17,0.0,4.0,34,0.00,,,0.00,vanprod-2.3,2013-07-01 18:06:00,
2013-07-01 13:11:00,83.3,51.2,30.20,NNE,17,0.0,2.0,33,0.00,,,0.00,vanprod-2.3,2013-07-01 18:11:00,
2013-07-01 13:16:00,83.8,50.8,30.20,NNE,17,2.0,3.0,32,0.00,,,0.00,vanprod-2.3,2013-07-01 18:16:00,
2013-07-01 13:21:00,84.2,51.2,30.20,NNE,17,0.0,1.0,32,0.00,,,0.00,vanprod-2.3,2013-07-01 18:21:00,
2013-07-01 13:26:00,83.8,51.7,30.20,NNE,17,1.0,1.0,33,0.00,,,0.00,vanprod-2.3,2013-07-01 18:26:00,
2013-07-01 13:31:00,83.3,52.8,30.20,NNE,17,0.0,1.0,35,0.00,,,0.00,vanprod-2.3,2013-07-01 18:31:00,
2013-07-01 13:36:00,83.5,53.8,30.20,NNE,17,1.0,3.0,36,0.00,,,0.00,vanprod-2.3,2013-07-01 18:36:00,
2013-07-01 13:41:00,83.6,51.5,30.20,NNE,17,0.0,1.0,33,0.00,,,0.00,vanprod-2.3,2013-07-01 18:41:00,
2013-07-01 13:46:00,83.8,50.0,30.20,NNE,17,2.0,0.0,31,0.00,,,0.00,vanprod-2.3,2013-07-01 18:46:00,
2013-07-01 13:51:00,84.0,49.3,30.20,NNE,18,1.0,0.0,30,0.00,,,0.00,vanprod-2.3,2013-07-01 18:51:00,
2013-07-01 13:56:00,84.0,51.0,30.20,NNE,18,1.0,2.0,32,0.00,,,0.00,vanprod-2.3,2013-07-01 18:56:00,
2013-07-01 14:01:00,83.6,53.1,30.20,NNE,18,0.0,2.0,35,0.00,,,0.00,vanprod-2.3,2013-07-01 19:01:00,
2013-07-01 14:06:00,82.9,50.9,30.20,NNE,18,1.0,3.0,33,0.00,,,0.00,vanprod-2.3,2013-07-01 19:06:00,
2013-07-01 14:11:00,82.7,49.9,30.20,NNE,18,3.0,5.0,32,0.00,,,0.00,vanprod-2.3,2013-07-01 19:11:00,
2013-07-01 14:16:00,83.1,50.2,30.20,NNE,18,1.0,1.0,32,0.00,,,0.00,vanprod-2.3,2013-07-01 19:16:00,
2013-07-01 14:21:00,83.5,50.6,30.20,NNE,18,3.0,3.0,32,0.00,,,0.00,vanprod-2.3,2013-07-01 19:21:00,
2013-07-01 14:26:00,83.3,50.4,30.20,NNE,18,1.0,0.0,32,0.00,,,0.00,vanprod-2.3,2013-07-01 19:26:00,
2013-07-01 14:31:00,83.5,50.6,30.20,NNE,18,1.0,1.0,32,0.00,,,0.00,vanprod-2.3,2013-07-01 19:31:00,
2013-07-01 14:36:00,83.6,49.8,30.19,NNE,18,0.0,0.0,31,0.00,,,0.00,vanprod-2.3,2013-07-01 19:36:00,
2013-07-01 14:41:00,84.0,53.4,30.19,NNE,18,1.0,1.0,35,0.00,,,0.00,vanprod-2.3,2013-07-01 19:41:00,
2013-07-01 14:46:00,84.2,51.2,30.19,NNE,18,2.0,2.0,32,0.00,,,0.00,vanprod-2.3,2013-07-01 19:46:00,
2013-07-01 14:51:00,84.6,52.4,30.19,NNE,18,0.0,0.0,33,0.00,,,0.00,vanprod-2.3,2013-07-01 19:51:00,
2013-07-01 14:56:00,85.2,52.0,30.18,NNE,18,0.0,0.0,32,0.00,,,0.00,vanprod-2.3,2013-07-01 19:56:00,
2013-07-01 15:01:00,85.0,51.0,30.19,NNE,18,1.0,4.0,31,0.00,,,0.00,vanprod-2.3,2013-07-01 20:01:00,
2013-07-01 15:06:00,84.6,50.7,30.18,NNE,18,2.0,0.0,31,0.00,,,0.00,vanprod-2.3,2013-07-01 20:06:00,
2013-07-01 15:11:00,84.6,48.9,30.18,NNE,18,2.0,3.0,29,0.00,,,0.00,vanprod-2.3,2013-07-01 20:11:00,
2013-07-01 15:16:00,84.6,51.5,30.18,NNE,27,1.0,0.0,32,0.00,,,0.00,vanprod-2.3,2013-07-01 20:16:00,
2013-07-01 15:21:00,84.6,50.7,30.18,NNE,27,2.0,3.0,31,0.00,,,0.00,vanprod-2.3,2013-07-01 20:21:00,
2013-07-01 15:26:00,85.2,50.3,30.18,NNE,27,0.0,1.0,30,0.00,,,0.00,vanprod-2.3,2013-07-01 20:26:00,
2013-07-01 15:31:00,85.4,50.5,30.18,NNE,21,2.0,3.0,30,0.00,,,0.00,vanprod-2.3,2013-07-01 20:31:00,
2013-07-01 15:36:00,85.2,49.4,30.18,NNE,21,1.0,0.0,29,0.00,,,0.00,vanprod-2.3,2013-07-01 20:36:00,
2013-07-01 15:41:00,85.8,50.8,30.18,NNE,21,1.0,2.0,30,0.00,,,0.00,vanprod-2.3,2013-07-01 20:41:00,
2013-07-01 15:46:00,85.4,51.4,30.18,NNE,21,3.0,3.0,31,0.00,,,0.00,vanprod-2.3,2013-07-01 20:46:00,
2013-07-01 15:51:00,85.4,50.5,30.18,NNE,21,2.0,4.0,30,0.00,,,0.00,vanprod-2.3,2013-07-01 20:51:00,
2013-07-01 15:56:00,85.0,49.2,30.18,NNE,21,2.0,4.0,29,0.00,,,0.00,vanprod-2.3,2013-07-01 20:56:00,
2013-07-01 16:01:00,84.8,49.0,30.17,NNE,21,1.0,1.0,29,0.00,,,0.00,vanprod-2.3,2013-07-01 21:01:00,
2013-07-01 16:06:00,85.2,52.0,30.17,NNE,21,0.0,0.0,32,0.00,,,0.00,vanprod-2.3,2013-07-01 21:06:00,
2013-07-01 16:11:00,85.8,51.7,30.17,NNE,21,0.0,0.0,31,0.00,,,0.00,vanprod-2.3,2013-07-01 21:11:00,
2013-07-01 16:16:00,86.0,48.2,30.17,NNE,21,0.0,0.0,27,0.00,,,0.00,vanprod-2.3,2013-07-01 21:16:00,
2013-07-01 16:21:00,86.5,51.4,30.17,NNE,21,1.0,1.0,30,0.00,,,0.00,vanprod-2.3,2013-07-01 21:21:00,
2013-07-01 16:26:00,85.6,50.6,30.17,NNE,21,2.0,2.0,30,0.00,,,0.00,vanprod-2.3,2013-07-01 21:26:00,
2013-07-01 16:31:00,84.6,50.7,30.17,NNE,21,0.0,0.0,31,0.00,,,0.00,vanprod-2.3,2013-07-01 21:31:00,
2013-07-01 16:36:00,84.0,51.0,30.17,NNE,21,0.0,0.0,32,0.00,,,0.00,vanprod-2.3,2013-07-01 21:36:00,
2013-07-01 16:41:00,84.2,53.6,30.17,NNE,21,0.0,0.0,35,0.00,,,0.00,vanprod-2.3,2013-07-01 21:41:00,
2013-07-01 16:46:00,84.6,51.5,30.17,NNE,21,0.0,0.0,32,0.00,,,0.00,vanprod-2.3,2013-07-01 21:46:00,
2013-07-01 16:51:00,85.0,51.9,30.17,NNE,21,0.0,0.0,32,0.00,,,0.00,vanprod-2.3,2013-07-01 21:51:00,
2013-07-01 16:56:00,86.0,51.9,30.17,NNE,21,0.0,0.0,31,0.00,,,0.00,vanprod-2.3,2013-07-01 21:56:00,
2013-07-01 17:01:00,86.2,52.9,30.17,NNE,21,1.0,3.0,32,0.00,,,0.00,vanprod-2.3,2013-07-01 22:01:00,
2013-07-01 17:06:00,85.8,51.7,30.17,NNE,21,0.0,0.0,31,0.00,,,0.00,vanprod-2.3,2013-07-01 22:06:00,
2013-07-01 17:11:00,86.5,52.3,30.17,NNE,21,0.0,0.0,31,0.00,,,0.00,vanprod-2.3,2013-07-01 22:11:00,
2013-07-01 17:16:00,86.9,52.7,30.17,NNE,21,0.0,1.0,31,0.00,,,0.00,vanprod-2.3,2013-07-01 22:16:00,
2013-07-01 17:21:00,86.9,51.8,30.17,NNE,21,0.0,0.0,30,0.00,,,0.00,vanprod-2.3,2013-07-01 22:21:00,
2013-07-01 17:26:00,86.5,51.4,30.17,NNE,21,1.0,0.0,30,0.00,,,0.00,vanprod-2.3,2013-07-01 22:26:00,
2013-07-01 17:31:00,86.0,52.7,30.17,NNE,21,0.0,1.0,32,0.00,,,0.00,vanprod-2.3,2013-07-01 22:31:00,
2013-07-01 17:36:00,85.2,52.0,30.17,NNE,21,0.0,0.0,32,0.00,,,0.00,vanprod-2.3,2013-07-01 22:36:00,
2013-07-01 17:41:00,85.0,53.5,30.17,NNE,21,0.0,2.0,34,0.00,,,0.00,vanprod-2.3,2013-07-01 22:41:00,
2013-07-01 17:46:00,84.6,52.4,30.17,NNE,21,0.0,0.0,33,0.00,,,0.00,vanprod-2.3,2013-07-01 22:46:00,
2013-07-01 17:51:00,85.0,51.9,30.17,NNE,21,0.0,0.0,32,0.00,,,0.00,vanprod-2.3,2013-07-01 22:51:00,
2013-07-01 17:56:00,85.4,52.2,30.17,NNE,21,0.0,0.0,32,0.00,,,0.00,vanprod-2.3,2013-07-01 22:56:00,
2013-07-01 18:01:00,85.6,51.5,30.17,NNE,21,0.0,0.0,31,0.00,,,0.00,vanprod-2.3,2013-07-01 23:01:00,
2013-07-01 18:06:00,85.8,53.4,30.16,NNE,21,0.0,0.0,33,0.00,,,0.00,vanprod-2.3,2013-07-01 23:06:00,
2013-07-01 18:11:00,85.4,51.4,30.16,NNE,21,0.0,1.0,31,0.00,,,0.00,vanprod-2.3,2013-07-01 23:11:00,
2013-07-01 18:16:00,84.8,49.0,30.16,NNE,21,1.0,0.0,29,0.00,,,0.00,vanprod-2.3,2013-07-01 23:16:00,
2013-07-01 18:21:00,84.8,52.5,30.16,NNE,21,0.0,0.0,33,0.00,,,0.00,vanprod-2.3,2013-07-01 23:21:00,
2013-07-01 18:26:00,84.6,50.7,30.16,NNE,21,0.0,0.0,31,0.00,,,0.00,vanprod-2.3,2013-07-01 23:26:00,
2013-07-01 18:31:00,84.0,50.1,30.16,NNE,21,2.0,2.0,31,0.00,,,0.00,vanprod-2.3,2013-07-01 23:31:00,
2013-07-01 18:36:00,83.6,49.8,30.16,NNE,21,1.0,0.0,31,0.00,,,0.00,vanprod-2.3,2013-07-01 23:36:00,
2013-07-01 18:41:00,83.5,52.2,30.16,NNE,21,0.0,1.0,34,0.00,,,0.00,vanprod-2.3,2013-07-01 23:41:00,
2013-07-01 18:46:00,83.1,51.9,30.16,NNE,21,1.0,3.0,34,0.00,,,0.00,vanprod-2.3,2013-07-01 23:46:00,
2013-07-01 18:51:00,82.9,50.9,30.16,NNE,21,1.0,2.0,33,0.00,,,0.00,vanprod-2.3,2013-07-01 23:51:00,
2013-07-01 18:56:00,82.7,49.0,30.16,NNE,21,2.0,2.0,31,0.00,,,0.00,vanprod-2.3,2013-07-01 23:56:00,
2013-07-01 19:01:00,82.5,51.3,30.16,NNE,21,1.0,1.0,34,0.00,,,0.00,vanprod-2.3,2013-07-02 00:01:00,
2013-07-01 19:06:00,82.5,52.1,30.16,NNE,21,0.0,0.0,35,0.00,,,0.00,vanprod-2.3,2013-07-02 00:06:00,
2013-07-01 19:11:00,82.5,51.3,30.16,NNE,21,1.0,1.0,34,0.00,,,0.00,vanprod-2.3,2013-07-02 00:11:00,
2013-07-01 19:16:00,82.5,51.3,30.16,NNE,21,1.0,2.0,34,0.00,,,0.00,vanprod-2.3,2013-07-02 00:16:00,
2013-07-01 19:21:00,82.3,51.2,30.16,NNE,21,1.0,2.0,34,0.00,,,0.00,vanprod-2.3,2013-07-02 00:21:00,
2013-07-01 19:26:00,82.1,51.8,30.16,NNE,21,1.0,3.0,35,0.00,,,0.00,vanprod-2.3,2013-07-02 00:26:00,
2013-07-01 19:31:00,81.9,52.4,30.16,NNE,21,0.0,3.0,36,0.00,,,0.00,vanprod-2.3,2013-07-02 00:31:00,
2013-07-01 19:36:00,81.7,52.9,30.16,NNE,21,1.0,1.0,37,0.00,,,0.00,vanprod-2.3,2013-07-02 00:36:00,
2013-07-01 19:41:00,81.5,51.2,30.16,NNE,21,0.0,0.0,35,0.00,,,0.00,vanprod-2.3,2013-07-02 00:41:00,
2013-07-01 19:46:00,81.3,51.1,30.16,NNE,21,0.0,0.0,35,0.00,,,0.00,vanprod-2.3,2013-07-02 00:46:00,
2013-07-01 19:51:00,81.1,52.4,30.16,NNE,21,0.0,0.0,37,0.00,,,0.00,vanprod-2.3,2013-07-02 00:51:00,
2013-07-01 19:56:00,81.1,52.4,30.16,NNE,21,0.0,0.0,37,0.00,,,0.00,vanprod-2.3,2013-07-02 00:56:00,
2013-07-01 20:01:00,80.9,52.9,30.16,NNE,21,0.0,0.0,38,0.00,,,0.00,vanprod-2.3,2013-07-02 01:01:00,
2013-07-01 20:06:00,80.9,53.6,30.16,NNE,21,0.0,0.0,39,0.00,,,0.00,vanprod-2.3,2013-07-02 01:06:00,
2013-07-01 20:11:00,80.7,53.5,30.16,NNE,21,0.0,0.0,39,0.00,,,0.00,vanprod-2.3,2013-07-02 01:11:00,
2013-07-01 20:16:00,80.4,54.6,30.16,NNE,21,0.0,0.0,41,0.00,,,0.00,vanprod-2.3,2013-07-02 01:16:00,
2013-07-01 20:21:00,80.0,55.5,30.16,NNE,21,0.0,0.0,43,0.00,,,0.00,vanprod-2.3,2013-07-02 01:21:00,
2013-07-01 20:26:00,79.6,55.8,30.16,NNE,21,0.0,0.0,44,0.00,,,0.00,vanprod-2.3,2013-07-02 01:26:00,
2013-07-01 20:31:00,79.3,55.5,30.16,NNE,21,0.0,0.0,44,0.00,,,0.00,vanprod-2.3,2013-07-02 01:31:00,
2013-07-01 20:36:00,79.1,56.6,30.16,NNE,21,0.0,0.0,46,0.00,,,0.00,vanprod-2.3,2013-07-02 01:36:00,
2013-07-01 20:41:00,78.7,56.8,30.16,NNE,21,0.0,0.0,47,0.00,,,0.00,vanprod-2.3,2013-07-02 01:41:00,
2013-07-01 20:46:00,78.1,56.8,30.16,NNE,21,0.0,0.0,48,0.00,,,0.00,vanprod-2.3,2013-07-02 01:46:00,
2013-07-01 20:51:00,77.6,57.5,30.16,NNE,21,0.0,0.0,50,0.00,,,0.00,vanprod-2.3,2013-07-02 01:51:00,
2013-07-01 20:56:00,77.2,57.1,30.16,NNE,21,0.0,0.0,50,0.00,,,0.00,vanprod-2.3,2013-07-02 01:56:00,
2013-07-01 21:01:00,76.9,56.9,30.16,NNE,21,0.0,0.0,50,0.00,,,0.00,vanprod-2.3,2013-07-02 02:01:00,
2013-07-01 21:06:00,76.5,57.0,30.16,NNE,21,0.0,0.0,51,0.00,,,0.00,vanprod-2.3,2013-07-02 02:06:00,
2013-07-01 21:11:00,76.2,57.3,30.16,NNE,21,0.0,0.0,52,0.00,,,0.00,vanprod-2.3,2013-07-02 02:11:00,
2013-07-01 21:16:00,75.6,57.3,30.16,NNE,21,0.0,0.0,53,0.00,,,0.00,vanprod-2.3,2013-07-02 02:16:00,
2013-07-01 21:21:00,75.3,57.5,30.16,NNE,21,0.0,0.0,54,0.00,,,0.00,vanprod-2.3,2013-07-02 02:21:00,
2013-07-01 21:26:00,74.8,58.1,30.16,NNE,21,0.0,0.0,56,0.00,,,0.00,vanprod-2.3,2013-07-02 02:26:00,
2013-07-01 21:31:00,74.2,58.0,30.16,NNE,21,0.0,0.0,57,0.00,,,0.00,vanprod-2.3,2013-07-02 02:31:00,
2013-07-01 21:36:00,73.9,57.7,30.16,NNE,21,0.0,0.0,57,0.00,,,0.00,vanprod-2.3,2013-07-02 02:36:00,
2013-07-01 21:41:00,73.4,57.7,30.16,NNE,21,0.0,0.0,58,0.00,,,0.00,vanprod-2.3,2013-07-02 02:41:00,
2013-07-01 21:46:00,73.0,57.8,30.16,NNE,21,0.0,0.0,59,0.00,,,0.00,vanprod-2.3,2013-07-02 02:46:00,
2013-07-01 21:51:00,72.7,57.6,30.16,NNE,21,0.0,0.0,59,0.00,,,0.00,vanprod-2.3,2013-07-02 02:51:00,
2013-07-01 21:56:00,72.3,57.7,30.16,NNE,21,0.0,0.0,60,0.00,,,0.00,vanprod-2.3,2013-07-02 02:56:00,
2013-07-01 22:01:00,72.2,57.6,30.17,NNE,21,0.0,0.0,60,0.00,,,0.00,vanprod-2.3,2013-07-02 03:01:00,
2013-07-01 22:06:00,71.8,57.6,30.17,NNE,21,0.0,0.0,61,0.00,,,0.00,vanprod-2.3,2013-07-02 03:06:00,
2013-07-01 22:11:00,71.6,57.9,30.17,NNE,21,0.0,0.0,62,0.00,,,0.00,vanprod-2.3,2013-07-02 03:11:00,
2013-07-01 22:16:00,71.3,57.2,30.17,NNE,21,0.0,0.0,61,0.00,,,0.00,vanprod-2.3,2013-07-02 03:16:00,
2013-07-01 22:21:00,71.1,57.4,30.17,NNE,21,0.0,0.0,62,0.00,,,0.00,vanprod-2.3,2013-07-02 03:21:00,
2013-07-01 22:26:00,71.0,57.3,30.17,NNE,21,0.0,0.0,62,0.00,,,0.00,vanprod-2.3,2013-07-02 03:26:00,
2013-07-01 22:31:00,70.8,57.6,30.17,NNE,21,0.0,0.0,63,0.00,,,0.00,vanprod-2.3,2013-07-02 03:31:00,
2013-07-01 22:36:00,70.6,57.4,30.17,NNE,21,0.0,0.0,63,0.00,,,0.00,vanprod-2.3,2013-07-02 03:36:00,
2013-07-01 22:41:00,70.4,57.7,30.17,NNE,21,0.0,0.0,64,0.00,,,0.00,vanprod-2.3,2013-07-02 03:41:00,
2013-07-01 22:46:00,70.3,58.0,30.17,NNE,21,0.0,0.0,65,0.00,,,0.00,vanprod-2.3,2013-07-02 03:46:00,
2013-07-01 22:51:00,70.1,57.8,30.17,NNE,21,0.0,0.0,65,0.00,,,0.00,vanprod-2.3,2013-07-02 03:51:00,
2013-07-01 22:56:00,69.9,57.6,30.17,NNE,21,0.0,0.0,65,0.00,,,0.00,vanprod-2.3,2013-07-02 03:56:00,
2013-07-01 23:01:00,69.9,58.0,30.17,NNE,21,0.0,0.0,66,0.00,,,0.00,vanprod-2.3,2013-07-02 04:01:00,
2013-07-01 23:06:00,69.8,57.9,30.17,NNE,21,0.0,0.0,66,0.00,,,0.00,vanprod-2.3,2013-07-02 04:06:00,
2013-07-01 23:11:00,69.6,58.2,30.17,NNE,21,0.0,0.0,67,0.00,,,0.00,vanprod-2.3,2013-07-02 04:11:00,
2013-07-01 23:16:00,69.4,58.0,30.17,NNE,21,0.0,0.0,67,0.00,,,0.00,vanprod-2.3,2013-07-02 04:16:00,
2013-07-01 23:21:00,69.3,58.3,30.17,NNE,21,0.0,0.0,68,0.00,,,0.00,vanprod-2.3,2013-07-02 04:21:00,
2013-07-01 23:26:00,69.1,58.5,30.17,NNE,21,0.0,0.0,69,0.00,,,0.00,vanprod-2.3,2013-07-02 04:26:00,
2013-07-01 23:31:00,68.9,58.3,30.17,NNE,21,0.0,0.0,69,0.00,,,0.00,vanprod-2.3,2013-07-02 04:31:00,
2013-07-01 23:36:00,68.8,58.2,30.17,NNE,21,0.0,0.0,69,0.00,,,0.00,vanprod-2.3,2013-07-02 04:36:00,
2013-07-01 23:41:00,68.6,58.4,30.17,NNE,21,0.0,0.0,70,0.00,,,0.00,vanprod-2.3,2013-07-02 04:41:00,
2013-07-01 23:46:00,68.4,57.8,30.17,NNE,21,0.0,0.0,69,0.00,,,0.00,vanprod-2.3,2013-07-02 04:46:00,
2013-07-01 23:51:00,68.3,58.1,30.17,NNE,21,0.0,0.0,70,0.00,,,0.00,vanprod-2.3,2013-07-02 04:51:00,
2013-07-01 23:56:00,68.1,58.4,30.17,NNE,21,0.0,0.0,71,0.00,,,0.00,vanprod-2.3,2013-07-02 04:56:00,